Thunder radar more information blitzortung!


Radar de pluja more information rain snow radar


Visita la nostra xarxa de llocs de meteo:

Template documentation
and downloads

And another site



No particular awareness of the weather is required.    There are no Weather-warnings

Pagina Historial Weather Underground text

Diari Resum Setembre 22, 2017 Unitats:  Tant    Imperial   Mètric
« Previous Dia
SegĂźent Dia »
Diari Setmana Mensual Anual Personalitzada
  Maxima: Minima: Media:
Temperatura: 75.4 °F /  24.1 °C 60.4 °F /  15.8 °C 66.6 °F /  19.2 °C
Punt de rosada: 64 °F /  17.8 °C 56.7 °F /  13.7 °C 59 °F /  15 °C
Humitat: 92 % 62 % 77 %
Wind Speed: 6.9 mph /  11.1 km/h - 2.1 mph /  3.3 km/h
RĂ fegues de vent: 6.9 mph /  11.1 km/h - -
Vent:- - SE
Pression baro: 30.2 in /  1022.9 hPa 30.1 in /  1018.8 hPa -
Precipitacions: 0.16 in /  4.1 mm    
Historical Graphs
 
 
Dades de taula per Setembre 22, 2017
Temps Temperatura Punt de rosada Pression baro Vent Wind Speed RĂ fegues de vent Humitat Rainfall Rate (Hourly)
00:00 66.2 °F /  19.0 °C 60.3 °F /  15.7 °C 30.1 in /  1018.8 hPa Calm     81 % 0 in /  0.0 mm
00:05 66.2 °F /  19.0 °C 60.3 °F /  15.7 °C 30.1 in /  1018.8 hPa Calm     81 % 0 in /  0.0 mm
00:10 66 °F /  18.9 °C 60.4 °F /  15.8 °C 30.1 in /  1018.8 hPa Calm     82 % 0 in /  0.0 mm
00:20 61.9 °F /  16.6 °C 58.6 °F /  14.8 °C 30.1 in /  1019.9 hPa Calm     89 % 0 in /  0.0 mm
00:30 61.9 °F /  16.6 °C 58.6 °F /  14.8 °C 30.1 in /  1019.9 hPa Calm     89 % 0 in /  0.0 mm
00:40 61.7 °F /  16.5 °C 58.5 °F /  14.7 °C 30.1 in /  1019.9 hPa Calm     89 % 0 in /  0.0 mm
00:50 61.3 °F /  16.3 °C 58.1 °F /  14.5 °C 30.1 in /  1019.9 hPa SE 1 mph /  1.6 km/h 2 mph /  3.2 km/h 89 % 0 in /  0.0 mm
01:00 61 °F /  16.1 °C 57.7 °F /  14.3 °C 30.1 in /  1019.9 hPa Calm   2 mph /  3.2 km/h 89 % 0 in /  0.0 mm
01:10 61.2 °F /  16.2 °C 57.9 °F /  14.4 °C 30.1 in /  1019.9 hPa SW 1 mph /  1.6 km/h 2 mph /  3.2 km/h 89 % 0 in /  0.0 mm
01:20 61.2 °F /  16.2 °C 58.3 °F /  14.6 °C 30.1 in /  1019.9 hPa WSW 2 mph /  3.2 km/h 2 mph /  3.2 km/h 90 % 0 in /  0.0 mm
01:30 61 °F /  16.1 °C 57.9 °F /  14.4 °C 30.1 in /  1019.9 hPa Calm   2 mph /  3.2 km/h 90 % 0 in /  0.0 mm
01:40 60.8 °F /  16.0 °C 57.6 °F /  14.2 °C 30.1 in /  1019.9 hPa NNW 1 mph /  1.6 km/h 1 mph /  1.6 km/h 89 % 0 in /  0.0 mm
01:50 60.6 °F /  15.9 °C 57.4 °F /  14.1 °C 30.1 in /  1019.9 hPa Calm   2 mph /  3.2 km/h 89 % 0 in /  0.0 mm
02:00 60.6 °F /  15.9 °C 57.4 °F /  14.1 °C 30.1 in /  1019.9 hPa WSW 2 mph /  3.2 km/h 3 mph /  4.8 km/h 89 % 0 in /  0.0 mm
02:10 60.4 °F /  15.8 °C 57.6 °F /  14.2 °C 30.1 in /  1019.9 hPa SW 1 mph /  1.6 km/h 3 mph /  4.8 km/h 90 % 0 in /  0.0 mm
02:20 60.8 °F /  16.0 °C 57.7 °F /  14.3 °C 30.1 in /  1019.9 hPa SW 1 mph /  1.6 km/h 2 mph /  3.2 km/h 90 % 0 in /  0.0 mm
02:30 60.8 °F /  16.0 °C 58.3 °F /  14.6 °C 30.1 in /  1019.9 hPa Calm   1 mph /  1.6 km/h 91 % 0 in /  0.0 mm
02:40 61 °F /  16.1 °C 58.3 °F /  14.6 °C 30.1 in /  1019.9 hPa WSW 1 mph /  1.6 km/h 2 mph /  3.2 km/h 91 % 0 in /  0.0 mm
02:50 61.2 °F /  16.2 °C 58.5 °F /  14.7 °C 30.1 in /  1019.9 hPa WSW 1 mph /  1.6 km/h 2 mph /  3.2 km/h 91 % 0 in /  0.0 mm
03:00 61.2 °F /  16.2 °C 58.5 °F /  14.7 °C 30.1 in /  1019.9 hPa Calm     91 % 0 in /  0.0 mm
03:10 61.3 °F /  16.3 °C 59 °F /  15.0 °C 30.1 in /  1019.9 hPa Calm     92 % 0 in /  0.0 mm
03:20 61.5 °F /  16.4 °C 59.2 °F /  15.1 °C 30.1 in /  1019.9 hPa Calm   1 mph /  1.6 km/h 92 % 0 in /  0.0 mm
03:30 61.9 °F /  16.6 °C 59.5 °F /  15.3 °C 30.1 in /  1019.9 hPa Calm   1 mph /  1.6 km/h 92 % 0 in /  0.0 mm
03:40 62.2 °F /  16.8 °C 59.9 °F /  15.5 °C 30.2 in /  1020.9 hPa Calm     92 % 0 in /  0.0 mm
03:50 63.1 °F /  17.3 °C 60.8 °F /  16.0 °C 30.2 in /  1020.9 hPa Calm     92 % 0 in /  0.0 mm
04:00 62.8 °F /  17.1 °C 60.1 °F /  15.6 °C 30.2 in /  1020.9 hPa NNW 1 mph /  1.6 km/h 2 mph /  3.2 km/h 91 % 0 in /  0.0 mm
04:10 63 °F /  17.2 °C 60.3 °F /  15.7 °C 30.2 in /  1020.9 hPa Calm     91 % 0 in /  0.0 mm
04:20 64 °F /  17.8 °C 61.3 °F /  16.3 °C 30.2 in /  1020.9 hPa WNW 1 mph /  1.6 km/h   91 % 0 in /  0.0 mm
04:30 64.9 °F /  18.3 °C 61.9 °F /  16.6 °C 30.2 in /  1020.9 hPa Calm   1 mph /  1.6 km/h 90 % 0 in /  0.0 mm
04:40 66 °F /  18.9 °C 62.4 °F /  16.9 °C 30.2 in /  1020.9 hPa NE 2 mph /  3.2 km/h 3 mph /  4.8 km/h 88 % 0 in /  0.0 mm
04:50 66.2 °F /  19.0 °C 61.5 °F /  16.4 °C 30.2 in /  1020.9 hPa NE 2 mph /  3.2 km/h 3 mph /  4.8 km/h 85 % 0 in /  0.0 mm
05:00 67.5 °F /  19.7 °C 62.4 °F /  16.9 °C 30.2 in /  1021.9 hPa NE 1 mph /  1.6 km/h 2 mph /  3.2 km/h 84 % 0 in /  0.0 mm
05:10 67.8 °F /  19.9 °C 62.1 °F /  16.7 °C 30.2 in /  1021.9 hPa NE 1 mph /  1.6 km/h 2 mph /  3.2 km/h 82 % 0 in /  0.0 mm
05:20 67.8 °F /  19.9 °C 62.1 °F /  16.7 °C 30.2 in /  1021.9 hPa NE 2 mph /  3.2 km/h 3 mph /  4.8 km/h 82 % 0 in /  0.0 mm
05:30 68 °F /  20.0 °C 61.5 °F /  16.4 °C 30.2 in /  1020.9 hPa NE 2 mph /  3.2 km/h 3 mph /  4.8 km/h 80 % 0 in /  0.0 mm
05:40 68 °F /  20.0 °C 61.5 °F /  16.4 °C 30.2 in /  1021.9 hPa NE 2 mph /  3.2 km/h 3 mph /  4.8 km/h 80 % 0 in /  0.0 mm
05:50 68.4 °F /  20.2 °C 61.9 °F /  16.6 °C 30.2 in /  1021.9 hPa NE 3 mph /  4.8 km/h 3 mph /  4.8 km/h 80 % 0 in /  0.0 mm
06:00 69.8 °F /  21.0 °C 62.6 °F /  17.0 °C 30.2 in /  1021.9 hPa NNE 2 mph /  3.2 km/h 3 mph /  4.8 km/h 78 % 0 in /  0.0 mm
09:40 69.4 °F /  20.8 °C 60.4 °F /  15.8 °C 30.2 in /  1022.9 hPa SW 2 mph /  3.2 km/h 3 mph /  4.8 km/h 73 % 0 in /  0.0 mm
09:50 68.2 °F /  20.1 °C 59.5 °F /  15.3 °C 30.2 in /  1022.9 hPa SW 3 mph /  4.8 km/h 3 mph /  4.8 km/h 74 % 0 in /  0.0 mm
10:00 66.7 °F /  19.3 °C 58.8 °F /  14.9 °C 30.2 in /  1022.9 hPa WSW 3 mph /  4.8 km/h 5 mph /  8.0 km/h 76 % 0 in /  0.0 mm
10:10 65.5 °F /  18.6 °C 58.5 °F /  14.7 °C 30.2 in /  1022.9 hPa WSW 1 mph /  1.6 km/h 3 mph /  4.8 km/h 78 % 0 in /  0.0 mm
10:20 64.9 °F /  18.3 °C 58.3 °F /  14.6 °C 30.2 in /  1022.9 hPa West 1 mph /  1.6 km/h 2 mph /  3.2 km/h 79 % 0 in /  0.0 mm
10:30 64.9 °F /  18.3 °C 58.3 °F /  14.6 °C 30.2 in /  1022.9 hPa WNW 2 mph /  3.2 km/h 3 mph /  4.8 km/h 79 % 0 in /  0.0 mm
11:04 70.7 °F /  21.5 °C 62.8 °F /  17.1 °C 30.2 in /  1021.9 hPa NE 1.2 mph /  1.9 km/h 1.2 mph /  1.9 km/h 76 % 0 in /  0.0 mm
11:09 71.6 °F /  22.0 °C 63.7 °F /  17.6 °C 30.2 in /  1021.9 hPa ESE 3.5 mph /  5.6 km/h 3.5 mph /  5.6 km/h 76 % 0 in /  0.0 mm
11:14 72 °F /  22.2 °C 63.1 °F /  17.3 °C 30.2 in /  1021.9 hPa NE 4.9 mph /  7.9 km/h 4.9 mph /  7.9 km/h 74 % 0 in /  0.0 mm
11:19 71.6 °F /  22.0 °C 63 °F /  17.2 °C 30.2 in /  1021.9 hPa East 2.4 mph /  3.9 km/h 2.4 mph /  3.9 km/h 74 % 0 in /  0.0 mm
11:24 72.3 °F /  22.4 °C 63.7 °F /  17.6 °C 30.2 in /  1021.9 hPa NNE 2.9 mph /  4.7 km/h   74 % 0 in /  0.0 mm
11:29 72.3 °F /  22.4 °C 63.1 °F /  17.3 °C 30.2 in /  1021.9 hPa NNE 5.8 mph /  9.3 km/h 5.8 mph /  9.3 km/h 73 % 0 in /  0.0 mm
11:34 72.9 °F /  22.7 °C 63.7 °F /  17.6 °C 30.2 in /  1021.9 hPa East 2.3 mph /  3.7 km/h 2.6 mph /  4.2 km/h 73 % 0 in /  0.0 mm
11:39 73.8 °F /  23.2 °C 63.9 °F /  17.7 °C 30.2 in /  1021.9 hPa ENE 2.4 mph /  3.9 km/h 2.4 mph /  3.9 km/h 71 % 0 in /  0.0 mm
11:44 74.1 °F /  23.4 °C 64 °F /  17.8 °C 30.2 in /  1021.9 hPa SE 2.4 mph /  3.9 km/h 2.4 mph /  3.9 km/h 71 % 0 in /  0.0 mm
11:49 73.9 °F /  23.3 °C 63.5 °F /  17.5 °C 30.2 in /  1021.9 hPa ENE 3.5 mph /  5.6 km/h 3.5 mph /  5.6 km/h 70 % 0 in /  0.0 mm
11:54 73.8 °F /  23.2 °C 63 °F /  17.2 °C 30.2 in /  1021.9 hPa ESE 3.1 mph /  5.0 km/h 3.3 mph /  5.3 km/h 69 % 0 in /  0.0 mm
11:59 73 °F /  22.8 °C 61.9 °F /  16.6 °C 30.2 in /  1021.9 hPa ESE 3.5 mph /  5.6 km/h 3.5 mph /  5.6 km/h 68 % 0 in /  0.0 mm
12:04 72.7 °F /  22.6 °C 61.9 °F /  16.6 °C 30.2 in /  1021.9 hPa ENE 3.5 mph /  5.6 km/h 3.5 mph /  5.6 km/h 69 % 0 in /  0.0 mm
12:09 72.7 °F /  22.6 °C 61.5 °F /  16.4 °C 30.2 in /  1021.9 hPa SE 3.5 mph /  5.6 km/h 3.5 mph /  5.6 km/h 68 % 0 in /  0.0 mm
12:14 73.6 °F /  23.1 °C 61.9 °F /  16.6 °C 30.2 in /  1021.9 hPa SSE 3.5 mph /  5.6 km/h 3.5 mph /  5.6 km/h 67 % 0 in /  0.0 mm
12:19 75.4 °F /  24.1 °C 63.7 °F /  17.6 °C 30.2 in /  1021.9 hPa WSW 1.4 mph /  2.3 km/h 2.2 mph /  3.5 km/h 67 % 0 in /  0.0 mm
12:24 75.2 °F /  24.0 °C 62.6 °F /  17.0 °C 30.2 in /  1021.9 hPa East 4.6 mph /  7.4 km/h 4.6 mph /  7.4 km/h 65 % 0 in /  0.0 mm
12:25 75.2 °F /  24.0 °C 62.6 °F /  17.0 °C 30.2 in /  1021.9 hPa ENE 4.6 mph /  7.4 km/h 4.6 mph /  7.4 km/h 65 % 0 in /  0.0 mm
12:30 74.7 °F /  23.7 °C 62.4 °F /  16.9 °C 30.2 in /  1021.9 hPa South 2.3 mph /  3.7 km/h 2.3 mph /  3.7 km/h 66 % 0 in /  0.0 mm
12:35 75 °F /  23.9 °C 63 °F /  17.2 °C 30.2 in /  1021.9 hPa SSE 2.3 mph /  3.7 km/h 2.3 mph /  3.7 km/h 66 % 0 in /  0.0 mm
12:40 74.7 °F /  23.7 °C 62.1 °F /  16.7 °C 30.2 in /  1021.9 hPa South 2.4 mph /  3.9 km/h 2.4 mph /  3.9 km/h 65 % 0 in /  0.0 mm
12:45 73.9 °F /  23.3 °C 61.3 °F /  16.3 °C 30.2 in /  1021.9 hPa ESE 2.4 mph /  3.9 km/h 2.4 mph /  3.9 km/h 65 % 0 in /  0.0 mm
12:50 74.1 °F /  23.4 °C 61.5 °F /  16.4 °C 30.2 in /  1021.9 hPa SSE 4.6 mph /  7.4 km/h 4.6 mph /  7.4 km/h 65 % 0 in /  0.0 mm
12:55 74.1 °F /  23.4 °C 61.2 °F /  16.2 °C 30.2 in /  1021.9 hPa SSE 4.6 mph /  7.4 km/h 4.6 mph /  7.4 km/h 64 % 0 in /  0.0 mm
13:00 73.9 °F /  23.3 °C 61.3 °F /  16.3 °C 30.2 in /  1021.9 hPa NE 2.3 mph /  3.7 km/h 2.3 mph /  3.7 km/h 65 % 0 in /  0.0 mm
13:05 73.9 °F /  23.3 °C 61 °F /  16.1 °C 30.2 in /  1021.9 hPa ESE 3.5 mph /  5.6 km/h 3.5 mph /  5.6 km/h 64 % 0 in /  0.0 mm
13:10 74.3 °F /  23.5 °C 61.9 °F /  16.6 °C 30.2 in /  1021.9 hPa SW 2.3 mph /  3.7 km/h 2.3 mph /  3.7 km/h 65 % 0 in /  0.0 mm
13:15 74.8 °F /  23.8 °C 61.9 °F /  16.6 °C 30.2 in /  1021.9 hPa East 2.3 mph /  3.7 km/h 2.3 mph /  3.7 km/h 64 % 0 in /  0.0 mm
13:20 73.9 °F /  23.3 °C 61 °F /  16.1 °C 30.2 in /  1021.9 hPa SW 2.3 mph /  3.7 km/h 2.3 mph /  3.7 km/h 64 % 0 in /  0.0 mm
13:25 73.9 °F /  23.3 °C 61 °F /  16.1 °C 30.2 in /  1021.9 hPa SE 2.6 mph /  4.2 km/h   64 % 0 in /  0.0 mm
13:30 73.6 °F /  23.1 °C 60.6 °F /  15.9 °C 30.2 in /  1021.9 hPa SSE 4.6 mph /  7.4 km/h 4.6 mph /  7.4 km/h 64 % 0 in /  0.0 mm
13:35 73.8 °F /  23.2 °C 61.3 °F /  16.3 °C 30.2 in /  1021.9 hPa South 3.8 mph /  6.1 km/h 3.8 mph /  6.1 km/h 65 % 0 in /  0.0 mm
13:40 73.9 °F /  23.3 °C 61.3 °F /  16.3 °C 30.2 in /  1021.9 hPa WSW 2.2 mph /  3.5 km/h 2.2 mph /  3.5 km/h 65 % 0 in /  0.0 mm
13:45 73.8 °F /  23.2 °C 60.8 °F /  16.0 °C 30.2 in /  1021.9 hPa WSW 3.5 mph /  5.6 km/h 3.5 mph /  5.6 km/h 64 % 0 in /  0.0 mm
13:50 74.3 °F /  23.5 °C 61.9 °F /  16.6 °C 30.2 in /  1021.9 hPa SSE 4.6 mph /  7.4 km/h 4.6 mph /  7.4 km/h 65 % 0 in /  0.0 mm
13:55 74.5 °F /  23.6 °C 61.9 °F /  16.6 °C 30.2 in /  1021.9 hPa SW 2.3 mph /  3.7 km/h 2.3 mph /  3.7 km/h 65 % 0 in /  0.0 mm
14:00 74.5 °F /  23.6 °C 61.5 °F /  16.4 °C 30.2 in /  1021.9 hPa SE 3.5 mph /  5.6 km/h 3.5 mph /  5.6 km/h 64 % 0 in /  0.0 mm
14:05 73.9 °F /  23.3 °C 60.1 °F /  15.6 °C 30.2 in /  1021.9 hPa South 4.6 mph /  7.4 km/h 4.6 mph /  7.4 km/h 62 % 0 in /  0.0 mm
14:10 73.9 °F /  23.3 °C 61 °F /  16.1 °C 30.2 in /  1021.9 hPa SW 3.5 mph /  5.6 km/h 3.5 mph /  5.6 km/h 64 % 0 in /  0.0 mm
14:15 73.9 °F /  23.3 °C 61 °F /  16.1 °C 30.2 in /  1021.9 hPa WSW 1.2 mph /  1.9 km/h 1.2 mph /  1.9 km/h 64 % 0 in /  0.0 mm
14:20 73.6 °F /  23.1 °C 61.2 °F /  16.2 °C 30.2 in /  1021.9 hPa SW 2.3 mph /  3.7 km/h 2.3 mph /  3.7 km/h 65 % 0 in /  0.0 mm
14:25 73.4 °F /  23.0 °C 61 °F /  16.1 °C 30.2 in /  1021.9 hPa SW 4.7 mph /  7.6 km/h 4.7 mph /  7.6 km/h 65 % 0 in /  0.0 mm
15:42 64.6 °F /  18.1 °C 58.3 °F /  14.6 °C 30.2 in /  1022.9 hPa NW 4.7 mph /  7.6 km/h 4.7 mph /  7.6 km/h 80 % 0 in /  0.0 mm
15:47 64.9 °F /  18.3 °C 58.6 °F /  14.8 °C 30.2 in /  1022.9 hPa ENE 2.4 mph /  3.9 km/h 2.4 mph /  3.9 km/h 80 % 0 in /  0.0 mm
15:52 64.8 °F /  18.2 °C 58.5 °F /  14.7 °C 30.2 in /  1022.9 hPa NE 3.5 mph /  5.6 km/h 3.5 mph /  5.6 km/h 80 % 0.16 in /  4.1 mm
15:57 65.1 °F /  18.4 °C 58.8 °F /  14.9 °C 30.2 in /  1022.9 hPa NNW 3.5 mph /  5.6 km/h 3.5 mph /  5.6 km/h 80 % 0.16 in /  4.1 mm
16:02 64.9 °F /  18.3 °C 58.6 °F /  14.8 °C 30.2 in /  1022.9 hPa NNE 3.5 mph /  5.6 km/h 3.5 mph /  5.6 km/h 80 % 0.16 in /  4.1 mm
16:07 65.1 °F /  18.4 °C 58.8 °F /  14.9 °C 30.2 in /  1022.9 hPa NE 2 mph /  3.2 km/h 2 mph /  3.2 km/h 80 % 0.16 in /  4.1 mm
16:12 64.9 °F /  18.3 °C 58.6 °F /  14.8 °C 30.2 in /  1022.9 hPa NE 3.5 mph /  5.6 km/h 3.5 mph /  5.6 km/h 80 % 0.16 in /  4.1 mm
16:17 65.3 °F /  18.5 °C 59.4 °F /  15.2 °C 30.2 in /  1022.9 hPa NE 1.2 mph /  1.9 km/h   81 % 0.16 in /  4.1 mm
16:22 65.7 °F /  18.7 °C 59.4 °F /  15.2 °C 30.2 in /  1021.9 hPa NE 1.6 mph /  2.6 km/h   80 % 0.16 in /  4.1 mm
16:27 65.8 °F /  18.8 °C 59.2 °F /  15.1 °C 30.2 in /  1021.9 hPa NNE 6.9 mph /  11.1 km/h 6.9 mph /  11.1 km/h 79 % 0.16 in /  4.1 mm
16:32 66 °F /  18.9 °C 59.4 °F /  15.2 °C 30.2 in /  1021.9 hPa ENE 4.6 mph /  7.4 km/h 4.6 mph /  7.4 km/h 79 % 0.16 in /  4.1 mm
16:37 65.7 °F /  18.7 °C 58.6 °F /  14.8 °C 30.2 in /  1021.9 hPa ENE 4.6 mph /  7.4 km/h 4.6 mph /  7.4 km/h 78 % 0.16 in /  4.1 mm
16:42 65.3 °F /  18.5 °C 58.3 °F /  14.6 °C 30.2 in /  1021.9 hPa NNE 5.8 mph /  9.3 km/h 5.8 mph /  9.3 km/h 78 % 0.16 in /  4.1 mm
16:47 65.3 °F /  18.5 °C 57.9 °F /  14.4 °C 30.2 in /  1021.9 hPa NE 5.8 mph /  9.3 km/h 5.8 mph /  9.3 km/h 77 % 0.16 in /  4.1 mm
16:52 65.3 °F /  18.5 °C 57.9 °F /  14.4 °C 30.2 in /  1021.9 hPa NNE 6.9 mph /  11.1 km/h 6.9 mph /  11.1 km/h 77 % 0 in /  0.0 mm
16:57 65.5 °F /  18.6 °C 58.1 °F /  14.5 °C 30.2 in /  1021.9 hPa NNE 5.8 mph /  9.3 km/h 5.8 mph /  9.3 km/h 77 % 0 in /  0.0 mm
17:02 65.7 °F /  18.7 °C 58.3 °F /  14.6 °C 30.2 in /  1021.9 hPa ENE 3.8 mph /  6.1 km/h 3.8 mph /  6.1 km/h 77 % 0 in /  0.0 mm
17:07 65.7 °F /  18.7 °C 58.3 °F /  14.6 °C 30.2 in /  1021.9 hPa NE 4.6 mph /  7.4 km/h 4.6 mph /  7.4 km/h 77 % 0 in /  0.0 mm
17:12 65.7 °F /  18.7 °C 57.9 °F /  14.4 °C 30.2 in /  1021.9 hPa ENE 5.4 mph /  8.7 km/h 5.4 mph /  8.7 km/h 76 % 0 in /  0.0 mm
17:17 66 °F /  18.9 °C 58.3 °F /  14.6 °C 30.2 in /  1021.9 hPa NE 4.6 mph /  7.4 km/h 4.6 mph /  7.4 km/h 76 % 0 in /  0.0 mm
17:22 66 °F /  18.9 °C 58.3 °F /  14.6 °C 30.2 in /  1021.9 hPa ENE 4.6 mph /  7.4 km/h 4.6 mph /  7.4 km/h 76 % 0 in /  0.0 mm
17:27 66.2 °F /  19.0 °C 57.7 °F /  14.3 °C 30.2 in /  1021.9 hPa NE 3.5 mph /  5.6 km/h 3.5 mph /  5.6 km/h 74 % 0 in /  0.0 mm
17:32 66.4 °F /  19.1 °C 57.7 °F /  14.3 °C 30.2 in /  1021.9 hPa Calm     74 % 0 in /  0.0 mm
17:37 66.4 °F /  19.1 °C 57.6 °F /  14.2 °C 30.2 in /  1021.9 hPa ENE 3.5 mph /  5.6 km/h 3.5 mph /  5.6 km/h 73 % 0 in /  0.0 mm
17:38 66.4 °F /  19.1 °C 57.6 °F /  14.2 °C 30.2 in /  1021.9 hPa ENE 3.5 mph /  5.6 km/h 3.5 mph /  5.6 km/h 73 % 0 in /  0.0 mm
17:43 66.7 °F /  19.3 °C 57.7 °F /  14.3 °C 30.2 in /  1021.9 hPa ENE 1.2 mph /  1.9 km/h   73 % 0 in /  0.0 mm
17:48 66.9 °F /  19.4 °C 58.5 °F /  14.7 °C 30.2 in /  1021.9 hPa NE 1.4 mph /  2.3 km/h   74 % 0 in /  0.0 mm
17:53 66.9 °F /  19.4 °C 58.5 °F /  14.7 °C 30.2 in /  1021.9 hPa North 1.2 mph /  1.9 km/h   74 % 0 in /  0.0 mm
17:58 67.3 °F /  19.6 °C 58.6 °F /  14.8 °C 30.2 in /  1021.9 hPa North 1.2 mph /  1.9 km/h   74 % 0 in /  0.0 mm
18:03 66.7 °F /  19.3 °C 57.7 °F /  14.3 °C 30.2 in /  1021.9 hPa NNE 2.3 mph /  3.7 km/h 2.4 mph /  3.9 km/h 73 % 0 in /  0.0 mm
18:08 66.6 °F /  19.2 °C 57.6 °F /  14.2 °C 30.2 in /  1021.9 hPa NE 1.6 mph /  2.6 km/h 1.6 mph /  2.6 km/h 73 % 0 in /  0.0 mm
18:13 66.4 °F /  19.1 °C 57 °F /  13.9 °C 30.2 in /  1021.9 hPa ENE 1.2 mph /  1.9 km/h   72 % 0 in /  0.0 mm
18:18 66.4 °F /  19.1 °C 57 °F /  13.9 °C 30.2 in /  1021.9 hPa ENE 1.2 mph /  1.9 km/h   72 % 0 in /  0.0 mm
18:23 66.4 °F /  19.1 °C 57.6 °F /  14.2 °C 30.2 in /  1021.9 hPa ENE 1.4 mph /  2.3 km/h 1.4 mph /  2.3 km/h 73 % 0 in /  0.0 mm
18:28 66.6 °F /  19.2 °C 57.6 °F /  14.2 °C 30.2 in /  1021.9 hPa Calm     73 % 0 in /  0.0 mm
18:33 66.4 °F /  19.1 °C 57 °F /  13.9 °C 30.2 in /  1021.9 hPa Calm     72 % 0 in /  0.0 mm
18:38 66.4 °F /  19.1 °C 57 °F /  13.9 °C 30.2 in /  1021.9 hPa ENE 1.4 mph /  2.3 km/h 1.4 mph /  2.3 km/h 72 % 0 in /  0.0 mm
18:43 66.4 °F /  19.1 °C 57 °F /  13.9 °C 30.2 in /  1021.9 hPa ENE 1.6 mph /  2.6 km/h 1.6 mph /  2.6 km/h 72 % 0 in /  0.0 mm
18:48 66.4 °F /  19.1 °C 57.6 °F /  14.2 °C 30.2 in /  1021.9 hPa Calm     73 % 0 in /  0.0 mm
18:53 66.4 °F /  19.1 °C 57.6 °F /  14.2 °C 30.2 in /  1021.9 hPa Calm     73 % 0 in /  0.0 mm
18:58 66.4 °F /  19.1 °C 57.6 °F /  14.2 °C 30.2 in /  1021.9 hPa Calm     73 % 0 in /  0.0 mm
19:03 66.4 °F /  19.1 °C 57.7 °F /  14.3 °C 30.2 in /  1021.9 hPa Calm     74 % 0 in /  0.0 mm
19:08 66.2 °F /  19.0 °C 57.7 °F /  14.3 °C 30.2 in /  1021.9 hPa ENE 1.2 mph /  1.9 km/h 1.2 mph /  1.9 km/h 74 % 0 in /  0.0 mm
19:13 66 °F /  18.9 °C 58.3 °F /  14.6 °C 30.2 in /  1021.9 hPa ENE 1.2 mph /  1.9 km/h   76 % 0 in /  0.0 mm
19:18 65.8 °F /  18.8 °C 58.1 °F /  14.5 °C 30.2 in /  1021.9 hPa ENE 1.4 mph /  2.3 km/h   76 % 0 in /  0.0 mm
19:23 65.8 °F /  18.8 °C 58.1 °F /  14.5 °C 30.2 in /  1021.9 hPa ENE 1.2 mph /  1.9 km/h   76 % 0 in /  0.0 mm
19:28 65.7 °F /  18.7 °C 57.9 °F /  14.4 °C 30.2 in /  1021.9 hPa Calm     76 % 0 in /  0.0 mm
19:33 65.5 °F /  18.6 °C 57.7 °F /  14.3 °C 30.2 in /  1021.9 hPa Calm     76 % 0 in /  0.0 mm
19:38 65.3 °F /  18.5 °C 57.6 °F /  14.2 °C 30.2 in /  1021.9 hPa Calm     76 % 0 in /  0.0 mm
19:43 65.3 °F /  18.5 °C 57.6 °F /  14.2 °C 30.2 in /  1021.9 hPa ENE 1.6 mph /  2.6 km/h 1.6 mph /  2.6 km/h 76 % 0 in /  0.0 mm
19:48 65.1 °F /  18.4 °C 57.4 °F /  14.1 °C 30.2 in /  1021.9 hPa ENE 2.3 mph /  3.7 km/h 2.3 mph /  3.7 km/h 76 % 0 in /  0.0 mm
19:53 65.1 °F /  18.4 °C 57.7 °F /  14.3 °C 30.2 in /  1021.9 hPa ENE 1.2 mph /  1.9 km/h   77 % 0 in /  0.0 mm
19:58 65.1 °F /  18.4 °C 57.7 °F /  14.3 °C 30.2 in /  1021.9 hPa ENE 1.2 mph /  1.9 km/h   77 % 0 in /  0.0 mm
20:03 64.9 °F /  18.3 °C 57.6 °F /  14.2 °C 30.2 in /  1021.9 hPa ENE 1.4 mph /  2.3 km/h   77 % 0 in /  0.0 mm
20:08 64.8 °F /  18.2 °C 57.4 °F /  14.1 °C 30.2 in /  1021.9 hPa NE 2.3 mph /  3.7 km/h 2.3 mph /  3.7 km/h 77 % 0 in /  0.0 mm
20:13 64.8 °F /  18.2 °C 57.4 °F /  14.1 °C 30.2 in /  1021.9 hPa NNE 2.3 mph /  3.7 km/h 2.3 mph /  3.7 km/h 77 % 0 in /  0.0 mm
20:18 64.6 °F /  18.1 °C 57.2 °F /  14.0 °C 30.2 in /  1021.9 hPa NNE 1.2 mph /  1.9 km/h   77 % 0 in /  0.0 mm
20:23 64.2 °F /  17.9 °C 57.2 °F /  14.0 °C 30.2 in /  1021.9 hPa NNE 3.5 mph /  5.6 km/h 3.5 mph /  5.6 km/h 78 % 0 in /  0.0 mm
20:28 64 °F /  17.8 °C 57 °F /  13.9 °C 30.2 in /  1021.9 hPa NNE 2.3 mph /  3.7 km/h 2.3 mph /  3.7 km/h 78 % 0 in /  0.0 mm
20:33 63.9 °F /  17.7 °C 56.8 °F /  13.8 °C 30.2 in /  1020.9 hPa NNE 3.5 mph /  5.6 km/h 3.5 mph /  5.6 km/h 78 % 0 in /  0.0 mm
20:38 63.9 °F /  17.7 °C 56.8 °F /  13.8 °C 30.2 in /  1020.9 hPa NNE 2.3 mph /  3.7 km/h 2.3 mph /  3.7 km/h 78 % 0 in /  0.0 mm
20:43 63.7 °F /  17.6 °C 56.7 °F /  13.7 °C 30.2 in /  1020.9 hPa Calm     78 % 0 in /  0.0 mm
20:48 63.7 °F /  17.6 °C 57 °F /  13.9 °C 30.2 in /  1021.9 hPa NNE 1.2 mph /  1.9 km/h   79 % 0 in /  0.0 mm
20:53 63.7 °F /  17.6 °C 57 °F /  13.9 °C 30.2 in /  1021.9 hPa North 2.3 mph /  3.7 km/h 2.3 mph /  3.7 km/h 79 % 0 in /  0.0 mm
20:58 63.5 °F /  17.5 °C 56.8 °F /  13.8 °C 30.2 in /  1021.9 hPa NE 3.5 mph /  5.6 km/h 3.5 mph /  5.6 km/h 79 % 0 in /  0.0 mm
21:03 63.5 °F /  17.5 °C 56.8 °F /  13.8 °C 30.2 in /  1021.9 hPa NNE 2.3 mph /  3.7 km/h 2.3 mph /  3.7 km/h 79 % 0 in /  0.0 mm
21:08 63.5 °F /  17.5 °C 56.8 °F /  13.8 °C 30.2 in /  1021.9 hPa NNE 2.9 mph /  4.7 km/h 2.9 mph /  4.7 km/h 79 % 0 in /  0.0 mm
21:13 63.5 °F /  17.5 °C 56.8 °F /  13.8 °C 30.2 in /  1021.9 hPa NNE 2.4 mph /  3.9 km/h 2.4 mph /  3.9 km/h 79 % 0 in /  0.0 mm
21:18 63.5 °F /  17.5 °C 56.8 °F /  13.8 °C 30.2 in /  1021.9 hPa NNE 3.5 mph /  5.6 km/h 3.5 mph /  5.6 km/h 79 % 0 in /  0.0 mm
21:23 63.5 °F /  17.5 °C 56.8 °F /  13.8 °C 30.2 in /  1021.9 hPa NNW 3.5 mph /  5.6 km/h 3.5 mph /  5.6 km/h 79 % 0 in /  0.0 mm
21:28 63.5 °F /  17.5 °C 56.8 °F /  13.8 °C 30.2 in /  1021.9 hPa North 2.3 mph /  3.7 km/h 2.3 mph /  3.7 km/h 79 % 0 in /  0.0 mm
21:33 63.5 °F /  17.5 °C 56.8 °F /  13.8 °C 30.2 in /  1021.9 hPa NNW 2.3 mph /  3.7 km/h   79 % 0 in /  0.0 mm
21:38 63.5 °F /  17.5 °C 56.8 °F /  13.8 °C 30.2 in /  1021.9 hPa NNW 2.3 mph /  3.7 km/h   79 % 0 in /  0.0 mm
21:43 63.5 °F /  17.5 °C 56.8 °F /  13.8 °C 30.2 in /  1021.9 hPa NW 2.6 mph /  4.2 km/h 2.6 mph /  4.2 km/h 79 % 0 in /  0.0 mm
21:48 63.7 °F /  17.6 °C 57 °F /  13.9 °C 30.2 in /  1021.9 hPa NW 2.3 mph /  3.7 km/h 2.3 mph /  3.7 km/h 79 % 0 in /  0.0 mm
21:53 63.7 °F /  17.6 °C 57 °F /  13.9 °C 30.2 in /  1021.9 hPa NNW 2.3 mph /  3.7 km/h 2.3 mph /  3.7 km/h 79 % 0 in /  0.0 mm
21:58 63.5 °F /  17.5 °C 56.8 °F /  13.8 °C 30.2 in /  1021.9 hPa NW 3.5 mph /  5.6 km/h 3.5 mph /  5.6 km/h 79 % 0 in /  0.0 mm
22:03 63.5 °F /  17.5 °C 56.8 °F /  13.8 °C 30.2 in /  1021.9 hPa NW 2.3 mph /  3.7 km/h   79 % 0 in /  0.0 mm
22:08 63.3 °F /  17.4 °C 56.7 °F /  13.7 °C 30.2 in /  1021.9 hPa NW 1.2 mph /  1.9 km/h   79 % 0 in /  0.0 mm
22:13 63.3 °F /  17.4 °C 56.7 °F /  13.7 °C 30.2 in /  1021.9 hPa NW 2.3 mph /  3.7 km/h 2.3 mph /  3.7 km/h 79 % 0 in /  0.0 mm
22:18 63.3 °F /  17.4 °C 56.7 °F /  13.7 °C 30.2 in /  1022.9 hPa NW 2.4 mph /  3.9 km/h 2.4 mph /  3.9 km/h 79 % 0 in /  0.0 mm
22:23 63.1 °F /  17.3 °C 56.8 °F /  13.8 °C 30.2 in /  1022.9 hPa NW 1.6 mph /  2.6 km/h   80 % 0 in /  0.0 mm
22:28 63.1 °F /  17.3 °C 56.8 °F /  13.8 °C 30.2 in /  1022.9 hPa NW 1.6 mph /  2.6 km/h 1.6 mph /  2.6 km/h 80 % 0 in /  0.0 mm
22:33 63.1 °F /  17.3 °C 56.8 °F /  13.8 °C 30.2 in /  1022.9 hPa NW 1.4 mph /  2.3 km/h 1.4 mph /  2.3 km/h 80 % 0 in /  0.0 mm
22:38 63.1 °F /  17.3 °C 56.8 °F /  13.8 °C 30.2 in /  1022.9 hPa NW 1.2 mph /  1.9 km/h   80 % 0 in /  0.0 mm
22:43 63.1 °F /  17.3 °C 56.8 °F /  13.8 °C 30.2 in /  1022.9 hPa NW 2.3 mph /  3.7 km/h 2.3 mph /  3.7 km/h 80 % 0 in /  0.0 mm
22:48 63.1 °F /  17.3 °C 56.8 °F /  13.8 °C 30.2 in /  1022.9 hPa NW 2.3 mph /  3.7 km/h 2.3 mph /  3.7 km/h 80 % 0 in /  0.0 mm
22:53 63.3 °F /  17.4 °C 57 °F /  13.9 °C 30.2 in /  1022.9 hPa NW 1.2 mph /  1.9 km/h 1.6 mph /  2.6 km/h 80 % 0 in /  0.0 mm
22:58 63.3 °F /  17.4 °C 57.4 °F /  14.1 °C 30.2 in /  1022.9 hPa Calm     81 % 0 in /  0.0 mm
23:03 63.3 °F /  17.4 °C 57.4 °F /  14.1 °C 30.2 in /  1022.9 hPa NW 2.3 mph /  3.7 km/h   81 % 0 in /  0.0 mm
23:08 63.3 °F /  17.4 °C 57.4 °F /  14.1 °C 30.2 in /  1022.9 hPa NW 1.4 mph /  2.3 km/h 1.4 mph /  2.3 km/h 81 % 0 in /  0.0 mm
23:13 63.3 °F /  17.4 °C 57.4 °F /  14.1 °C 30.2 in /  1022.9 hPa Calm     81 % 0 in /  0.0 mm
23:18 63.3 °F /  17.4 °C 57.4 °F /  14.1 °C 30.2 in /  1022.9 hPa Calm     81 % 0 in /  0.0 mm
23:23 63.3 °F /  17.4 °C 57.4 °F /  14.1 °C 30.2 in /  1022.9 hPa NW 1.2 mph /  1.9 km/h 1.2 mph /  1.9 km/h 81 % 0 in /  0.0 mm
23:28 63.3 °F /  17.4 °C 57.4 °F /  14.1 °C 30.2 in /  1022.9 hPa Calm     81 % 0 in /  0.0 mm
23:33 63.3 °F /  17.4 °C 57.4 °F /  14.1 °C 30.2 in /  1022.9 hPa NW 1.2 mph /  1.9 km/h   81 % 0 in /  0.0 mm
23:38 63.1 °F /  17.3 °C 57.6 °F /  14.2 °C 30.2 in /  1022.9 hPa Calm     82 % 0 in /  0.0 mm
23:43 63.1 °F /  17.3 °C 57.6 °F /  14.2 °C 30.2 in /  1022.9 hPa NW 1.2 mph /  1.9 km/h 1.2 mph /  1.9 km/h 82 % 0 in /  0.0 mm
23:48 63 °F /  17.2 °C 57.4 °F /  14.1 °C 30.2 in /  1022.9 hPa Calm     82 % 0 in /  0.0 mm
23:53 63 °F /  17.2 °C 57.4 °F /  14.1 °C 30.2 in /  1022.9 hPa NW 1.2 mph /  1.9 km/h   82 % 0 in /  0.0 mm
23:58 62.8 °F /  17.1 °C 57.2 °F /  14.0 °C 30.2 in /  1022.9 hPa Calm     82 % 0 in /  0.0 mm
Meteo Sesrovires
Elogis d' Weather Underground - 3.5 mb

Guio original per  Jim McMurry - jmcmurry@mwt.net Adaptat per a la plantilla per  Wim van der Kuil - Leuven-Template.eu

Trobareu la nostra informacio del temps tambe a:

Weather Underground

AWEKAS